Overview Statistics Trail Chart Weather Telemetry Raw packets
 

This is the latest recevied weather packets stored in our database for station/object KE5QKR. If no packets are shown the sender has not sent any weather packets the latest 10 day(s).

<< 101 102 103 104 105 106 107 >>
Time Temp. Humidity Pressure Rain* Wind** Luminosity Snow
1777193211 20° C 99% 1008.4 hPa 0 mm - 0 W/m² -
1777192906 20° C 99% 1008.1 hPa 0 mm - 0 W/m² -
1777192603 20° C 99% 1008 hPa 0 mm - 0 W/m² -
1777192300 20° C 99% 1008.2 hPa 0 mm - 0 W/m² -
1777191997 20° C 99% 1008 hPa 0 mm - 0 W/m² -
1777191693 20° C 99% 1007.8 hPa 0 mm - 0 W/m² -
1777191389 20° C 99% 1007.5 hPa 0 mm - 0 W/m² -
1777191086 20° C 99% 1007.7 hPa 0 mm - 0 W/m² -
1777190783 20° C 99% 1007.5 hPa 0 mm - 0 W/m² -
1777190480 20° C 99% 1007.7 hPa 0 mm - 0 W/m² -
1777140711 25.56° C 79% 1008.4 hPa 0 mm - 830 W/m² -
1777140407 25.56° C 80% 1008.3 hPa 0 mm - 826 W/m² -
1777140105 25.56° C 79% 1008.3 hPa 0 mm - 841 W/m² -
1777139803 25.56° C 79% 1008.5 hPa 0 mm - 836 W/m² -
1777139499 25.56° C 79% 1008.7 hPa 0 mm - 836 W/m² -
1777139194 25.56° C 82% 1008.6 hPa 0 mm - 842 W/m² -
1777138891 25.56° C 81% 1008.9 hPa 0 mm - 848 W/m² -
1777138587 25.56° C 82% 1009 hPa 0 mm - 830 W/m² -
1777138283 24.44° C 85% 1009 hPa 0 mm - 853 W/m² -
1777137980 24.44° C 83% 1008.8 hPa 0 mm - 854 W/m² -
1777137675 24.44° C 84% 1008.8 hPa 0 mm - 847 W/m² -
1777137372 24.44° C 84% 1009.3 hPa 0 mm - 848 W/m² -
1777137069 23.89° C 85% 1009.1 hPa 0 mm - 840 W/m² -
1777136766 23.89° C 85% 1009.2 hPa 0 mm - 826 W/m² -
1777136463 24.44° C 85% 1009.2 hPa 0 mm - 432 W/m² -

* Rain latest hour (hover to see other rain measurements)
** Current wind speed in m/s (hover to see current wind gust speed)